Time;durP1;ratioP1;P1;durP2;ratioP2;P2;SDS_P1;SDS_P2;PMS_P1;PMS_P2;Temp;Humidity;BMP_temperature;BMP_pressure;BME280_temperature;BME280_humidity;BME280_pressure;Samples;Min_cycle;Max_cycle;Signal;HPM_P1;HPM_P2
2024/03/22 00:01:52;;;;;;;0.60;0.60;;;17.50;75.80;;;;;;4983437;28;20133;-75
2024/03/22 00:04:18;;;;;;;0.70;0.70;;;17.50;75.80;;;;;;4986049;28;20069;-76
2024/03/22 00:06:46;;;;;;;0.70;0.70;;;17.40;75.70;;;;;;4984049;28;20531;-75
2024/03/22 00:09:11;;;;;;;0.82;0.80;;;17.40;75.70;;;;;;4970909;28;20076;-75
2024/03/22 00:11:38;;;;;;;0.70;0.70;;;17.50;75.80;;;;;;4986688;28;20622;-75
2024/03/22 00:14:04;;;;;;;0.88;0.88;;;17.40;75.70;;;;;;4988973;28;20050;-75
2024/03/22 00:16:29;;;;;;;0.55;0.55;;;17.40;75.70;;;;;;4987821;28;20487;-75
2024/03/22 00:18:56;;;;;;;0.70;0.70;;;17.40;75.70;;;;;;4997081;28;20046;-75
2024/03/22 00:21:22;;;;;;;0.70;0.70;;;17.40;75.60;;;;;;4989716;28;20114;-75
2024/03/22 00:23:47;;;;;;;0.85;0.80;;;17.40;75.70;;;;;;4985797;28;20057;-75
2024/03/22 00:26:13;;;;;;;0.80;0.80;;;17.40;75.60;;;;;;4990319;28;20396;-75
2024/03/22 00:28:38;;;;;;;0.70;0.70;;;17.40;75.70;;;;;;5002824;28;20062;-75
2024/03/22 00:31:04;;;;;;;0.70;0.70;;;17.40;75.60;;;;;;4988728;28;20114;-75
2024/03/22 00:33:29;;;;;;;0.70;0.70;;;17.40;75.70;;;;;;4988354;28;20038;-75
2024/03/22 00:35:55;;;;;;;0.68;0.68;;;17.40;75.70;;;;;;4988583;28;20046;-75
2024/03/22 00:38:20;;;;;;;0.70;0.70;;;17.40;75.60;;;;;;4971174;28;20042;-75
2024/03/22 00:40:46;;;;;;;0.68;0.68;;;17.40;75.70;;;;;;4970944;28;20444;-75
2024/03/22 00:43:12;;;;;;;0.65;0.65;;;17.40;75.70;;;;;;4988895;28;20058;-75
2024/03/22 00:45:37;;;;;;;0.70;0.70;;;17.40;75.60;;;;;;4985960;28;20035;-75
2024/03/22 00:48:03;;;;;;;0.70;0.70;;;17.40;75.70;;;;;;4968890;28;20031;-75
2024/03/22 00:50:28;;;;;;;0.60;0.60;;;17.40;75.60;;;;;;4987194;28;21742;-75
2024/03/22 00:52:56;;;;;;;0.60;0.60;;;17.40;75.70;;;;;;4971295;28;20070;-76
2024/03/22 00:55:22;;;;;;;0.50;0.50;;;17.40;75.70;;;;;;4953043;28;20035;-76
2024/03/22 00:57:47;;;;;;;0.85;0.85;;;17.40;75.70;;;;;;4988365;28;20049;-75
2024/03/22 01:00:14;;;;;;;0.60;0.60;;;17.40;75.70;;;;;;4989118;28;20030;-75
2024/03/22 01:02:40;;;;;;;0.50;0.50;;;17.40;75.70;;;;;;4985831;28;20062;-75
2024/03/22 01:05:05;;;;;;;0.60;0.60;;;17.40;75.70;;;;;;4970710;28;20096;-90
2024/03/22 01:07:31;;;;;;;0.60;0.60;;;17.40;76.50;;;;;;4972550;28;20050;-89
2024/03/22 01:09:56;;;;;;;0.70;0.70;;;17.40;75.70;;;;;;4969351;28;20039;-90
2024/03/22 01:12:22;;;;;;;0.60;0.60;;;17.40;75.70;;;;;;4989753;28;20124;-89
2024/03/22 01:14:48;;;;;;;0.70;0.70;;;17.40;75.70;;;;;;4989540;28;20381;-91
2024/03/22 01:17:13;;;;;;;0.60;0.60;;;17.40;75.60;;;;;;4992360;28;20069;-91
2024/03/22 01:19:39;;;;;;;0.60;0.60;;;17.40;75.60;;;;;;4990804;28;20113;-90
2024/03/22 01:22:05;;;;;;;0.60;0.60;;;17.40;75.60;;;;;;4990459;28;20062;-90
2024/03/22 01:24:30;;;;;;;0.47;0.47;;;17.40;75.60;;;;;;4987243;28;20046;-89
2024/03/22 01:26:56;;;;;;;2.33;0.65;;;17.40;75.50;;;;;;4989607;28;20154;-89
2024/03/22 01:29:21;;;;;;;0.45;0.45;;;17.30;76.30;;;;;;4987506;28;20046;-89
2024/03/22 01:31:47;;;;;;;0.77;0.77;;;17.40;75.60;;;;;;4989031;28;20054;-90
2024/03/22 01:34:13;;;;;;;0.82;0.82;;;17.40;75.60;;;;;;4993653;28;20042;-90
2024/03/22 01:36:39;;;;;;;0.57;0.57;;;17.30;75.60;;;;;;4972888;28;20566;-90
2024/03/22 01:39:04;;;;;;;0.52;0.52;;;17.30;76.50;;;;;;4987977;28;20057;-90
2024/03/22 01:41:30;;;;;;;0.57;0.57;;;17.30;75.50;;;;;;4997138;28;20038;-90
2024/03/22 01:43:56;;;;;;;0.82;0.70;;;17.30;75.50;;;;;;4996160;28;20037;-88
2024/03/22 01:46:21;;;;;;;0.50;0.50;;;17.30;75.50;;;;;;4964056;28;20076;-88
2024/03/22 01:48:47;;;;;;;0.52;0.52;;;17.30;75.40;;;;;;4979830;28;20081;-89
2024/03/22 01:51:12;;;;;;;0.50;0.50;;;17.30;75.50;;;;;;4963041;28;20041;-87
2024/03/22 01:53:38;;;;;;;0.50;0.50;;;17.30;75.50;;;;;;4994781;28;20113;-90
2024/03/22 01:56:04;;;;;;;0.50;0.50;;;17.30;75.50;;;;;;4976244;28;20047;-90
2024/03/22 01:58:29;;;;;;;0.68;0.68;;;17.30;75.50;;;;;;4975608;28;20412;-90
2024/03/22 02:00:56;;;;;;;0.60;0.60;;;17.30;75.50;;;;;;5008543;28;21009;-91
2024/03/22 02:03:21;;;;;;;0.70;0.70;;;17.30;76.30;;;;;;4992379;28;20042;-89
2024/03/22 02:05:47;;;;;;;0.70;0.70;;;17.30;75.50;;;;;;4992610;28;20098;-91
2024/03/22 02:08:12;;;;;;;0.60;0.60;;;17.30;75.50;;;;;;4976829;28;20050;-91
2024/03/22 02:10:38;;;;;;;0.60;0.60;;;17.30;75.40;;;;;;4975014;28;20038;-90
2024/03/22 02:13:04;;;;;;;0.40;0.40;;;17.30;75.40;;;;;;4975125;28;20125;-89
2024/03/22 02:15:29;;;;;;;1.05;0.52;;;17.30;75.50;;;;;;4973785;28;20054;-88
2024/03/22 02:17:55;;;;;;;0.43;0.43;;;17.30;75.50;;;;;;5005418;28;20471;-90
2024/03/22 02:20:21;;;;;;;0.55;0.55;;;17.30;75.50;;;;;;4975367;28;20049;-82
2024/03/22 02:22:46;;;;;;;0.43;0.43;;;17.30;75.40;;;;;;4987902;28;20050;-88
2024/03/22 02:25:12;;;;;;;0.60;0.60;;;17.30;75.50;;;;;;4989202;28;20053;-90
2024/03/22 02:27:38;;;;;;;0.50;0.50;;;17.30;75.50;;;;;;4964466;28;20046;-89
2024/03/22 02:30:05;;;;;;;0.50;0.50;;;17.30;75.40;;;;;;4987311;28;20046;-89
2024/03/22 02:32:30;;;;;;;0.40;0.40;;;17.30;75.50;;;;;;4985977;28;20045;-88
2024/03/22 02:34:56;;;;;;;0.60;0.60;;;17.30;75.50;;;;;;5002992;28;20046;-88
2024/03/22 02:37:21;;;;;;;0.55;0.55;;;17.30;75.50;;;;;;4984699;28;20057;-80
2024/03/22 02:39:47;;;;;;;0.40;0.40;;;17.30;75.40;;;;;;4987018;28;20529;-87
2024/03/22 02:42:12;;;;;;;0.60;0.60;;;17.30;75.40;;;;;;4971024;28;20049;-87
2024/03/22 02:44:42;;;;;;;0.60;0.60;;;17.30;75.40;;;;;;4968562;28;20093;-89
2024/03/22 02:47:12;;;;;;;0.50;0.50;;;17.30;75.40;;;;;;5005437;28;20047;-90
2024/03/22 02:49:38;;;;;;;0.50;0.50;;;17.30;75.50;;;;;;5004632;28;20133;-90
2024/03/22 02:52:04;;;;;;;0.47;0.47;;;17.30;75.40;;;;;;4983229;28;20042;-90
2024/03/22 02:54:29;;;;;;;0.60;0.60;;;17.30;76.20;;;;;;4972022;28;20050;-89
2024/03/22 02:56:55;;;;;;;0.50;0.50;;;17.20;75.30;;;;;;4988579;28;20042;-89
2024/03/22 02:59:20;;;;;;;0.75;0.75;;;17.20;75.30;;;;;;5005208;28;20121;-90
2024/03/22 03:01:46;;;;;;;0.70;0.70;;;17.30;75.40;;;;;;4972666;28;20500;-91
2024/03/22 03:04:11;;;;;;;0.50;0.50;;;17.30;76.20;;;;;;4971591;28;20069;-90
2024/03/22 03:06:37;;;;;;;0.60;0.60;;;17.30;76.20;;;;;;4955434;28;20058;-90
2024/03/22 03:09:07;;;;;;;0.50;0.50;;;17.30;75.40;;;;;;4989579;28;20076;-89
2024/03/22 03:11:32;;;;;;;0.70;0.70;;;17.30;76.20;;;;;;4970902;28;20061;-91
2024/03/22 03:13:58;;;;;;;0.52;0.52;;;17.20;75.40;;;;;;4967322;28;20125;-91
2024/03/22 03:16:23;;;;;;;0.50;0.50;;;17.30;76.20;;;;;;4979817;28;20727;-86
2024/03/22 03:18:49;;;;;;;0.60;0.60;;;17.20;75.40;;;;;;4987285;28;20058;-91
2024/03/22 03:21:15;;;;;;;0.40;0.40;;;17.20;75.40;;;;;;4989678;28;20591;-91
2024/03/22 03:23:40;;;;;;;0.38;0.38;;;17.20;75.40;;;;;;5000632;28;20050;-90
2024/03/22 03:26:06;;;;;;;0.60;0.60;;;17.20;75.40;;;;;;4970664;28;20050;-92
2024/03/22 03:28:31;;;;;;;0.80;0.80;;;17.20;75.40;;;;;;4987958;28;20618;-90
2024/03/22 03:30:57;;;;;;;0.82;0.82;;;17.20;75.40;;;;;;4985984;28;20038;-90
2024/03/22 03:33:22;;;;;;;0.30;0.30;;;17.20;75.40;;;;;;4989167;28;20074;-90
2024/03/22 03:35:48;;;;;;;0.47;0.47;;;17.20;75.40;;;;;;4967991;28;20046;-90
2024/03/22 03:38:14;;;;;;;0.30;0.30;;;17.20;75.20;;;;;;4988316;28;20311;-91
2024/03/22 03:40:39;;;;;;;0.57;0.57;;;17.20;75.40;;;;;;4988000;28;20050;-90
2024/03/22 03:43:05;;;;;;;0.35;0.35;;;17.20;75.40;;;;;;4988585;28;20039;-91
2024/03/22 03:45:30;;;;;;;0.60;0.60;;;17.20;75.40;;;;;;4958053;28;20033;-91
2024/03/22 03:47:56;;;;;;;0.40;0.40;;;17.20;75.40;;;;;;4993168;28;20022;-88
2024/03/22 03:50:22;;;;;;;0.43;0.43;;;17.20;76.10;;;;;;4974517;28;20117;-88
2024/03/22 03:52:47;;;;;;;0.20;0.20;;;17.20;75.40;;;;;;4991686;28;20030;-89
2024/03/22 03:55:13;;;;;;;0.47;0.47;;;17.20;75.30;;;;;;4960222;28;20554;-89
2024/03/22 03:57:38;;;;;;;0.40;0.40;;;17.20;75.40;;;;;;4974500;28;20120;-90
2024/03/22 04:00:05;;;;;;;0.32;0.32;;;17.20;75.40;;;;;;4975250;28;20030;-89
2024/03/22 04:02:30;;;;;;;0.40;0.40;;;17.20;75.40;;;;;;4960440;28;20030;-90
2024/03/22 04:04:56;;;;;;;0.47;0.47;;;17.20;75.30;;;;;;4991384;28;20571;-90
2024/03/22 04:07:21;;;;;;;0.40;0.40;;;17.20;75.30;;;;;;4992769;28;20069;-90
2024/03/22 04:09:47;;;;;;;0.40;0.40;;;17.20;75.20;;;;;;4960443;28;20034;-90
2024/03/22 04:12:13;;;;;;;0.30;0.30;;;17.20;75.30;;;;;;4992773;28;20018;-89
2024/03/22 04:14:38;;;;;;;0.40;0.40;;;17.20;75.40;;;;;;4974524;28;20041;-91
2024/03/22 04:17:04;;;;;;;0.28;0.28;;;17.20;75.40;;;;;;4989444;28;20031;-91
2024/03/22 04:19:30;;;;;;;0.40;0.40;;;17.20;75.30;;;;;;4991831;28;20087;-91
2024/03/22 04:21:55;;;;;;;0.30;0.30;;;17.20;75.40;;;;;;4992548;28;20515;-90
2024/03/22 04:24:21;;;;;;;0.40;0.40;;;17.20;75.40;;;;;;4992105;28;20029;-90
2024/03/22 04:26:46;;;;;;;0.30;0.30;;;17.20;75.50;;;;;;4992224;28;20086;-90
2024/03/22 04:29:12;;;;;;;0.30;0.30;;;17.20;75.20;;;;;;4991173;28;20022;-89
2024/03/22 04:31:37;;;;;;;0.30;0.30;;;17.20;75.10;;;;;;4989806;28;20502;-90
2024/03/22 04:34:05;;;;;;;0.38;0.38;;;17.20;75.10;;;;;;4990767;28;20034;-89
2024/03/22 04:36:31;;;;;;;0.30;0.30;;;17.20;75.10;;;;;;4991717;28;20034;-90
2024/03/22 04:38:57;;;;;;;0.30;0.25;;;17.20;75.20;;;;;;4992062;28;20026;-88
2024/03/22 04:41:22;;;;;;;0.40;0.40;;;17.20;75.20;;;;;;4974350;28;20034;-89
2024/03/22 04:43:48;;;;;;;0.40;0.40;;;17.20;75.20;;;;;;5005220;28;20038;-87
2024/03/22 04:46:13;;;;;;;0.30;0.30;;;17.20;75.20;;;;;;4991074;28;20033;-91
2024/03/22 04:48:39;;;;;;;0.30;0.30;;;17.20;75.20;;;;;;4991840;28;20105;-91
2024/03/22 04:51:04;;;;;;;0.20;0.20;;;17.20;75.10;;;;;;4993191;28;20104;-90
2024/03/22 04:53:30;;;;;;;0.50;0.50;;;17.20;75.20;;;;;;4989201;28;20086;-91
2024/03/22 04:55:56;;;;;;;0.40;0.40;;;17.20;75.20;;;;;;4987910;28;20110;-91
2024/03/22 04:58:21;;;;;;;0.40;0.40;;;17.20;75.20;;;;;;5008524;28;20026;-91
2024/03/22 05:00:48;;;;;;;0.30;0.30;;;17.10;75.10;;;;;;4974677;28;20026;-90
2024/03/22 05:03:13;;;;;;;0.25;0.25;;;17.20;75.20;;;;;;4989013;28;20038;-90
2024/03/22 05:05:40;;;;;;;0.40;0.40;;;17.20;75.10;;;;;;4975105;28;20033;-91
2024/03/22 05:08:06;;;;;;;0.43;0.43;;;17.10;75.00;;;;;;5008141;28;20030;-90
2024/03/22 05:10:31;;;;;;;0.28;0.28;;;17.10;75.00;;;;;;5005898;28;20034;-91
2024/03/22 05:12:57;;;;;;;0.47;0.47;;;17.10;75.10;;;;;;4992155;28;20096;-90
2024/03/22 05:15:23;;;;;;;0.40;0.40;;;17.10;75.10;;;;;;4991819;28;20503;-90
2024/03/22 05:17:51;;;;;;;0.30;0.30;;;17.10;75.10;;;;;;4991448;28;20014;-91
2024/03/22 05:20:16;;;;;;;0.50;0.50;;;17.10;75.10;;;;;;4992528;28;20495;-91
2024/03/22 05:22:42;;;;;;;0.30;0.30;;;17.10;75.00;;;;;;5006987;28;20026;-90
2024/03/22 05:25:08;;;;;;;0.40;0.40;;;17.10;75.00;;;;;;4989542;28;20015;-89
2024/03/22 05:27:34;;;;;;;0.40;0.40;;;17.10;75.00;;;;;;4988479;28;20419;-90
2024/03/22 05:29:59;;;;;;;0.30;0.30;;;17.10;75.10;;;;;;4992199;28;20077;-90
2024/03/22 05:32:25;;;;;;;0.20;0.20;;;17.10;75.00;;;;;;4973009;28;20030;-91
2024/03/22 05:34:51;;;;;;;0.40;0.40;;;17.10;75.00;;;;;;4992058;28;20034;-91
2024/03/22 05:37:17;;;;;;;0.30;0.30;;;17.10;74.90;;;;;;4992286;28;20113;-92
2024/03/22 05:39:42;;;;;;;0.40;0.40;;;17.10;75.00;;;;;;4989904;28;20113;-90
2024/03/22 05:42:08;;;;;;;0.40;0.40;;;17.10;74.90;;;;;;4988044;28;20045;-89
2024/03/22 05:44:34;;;;;;;0.30;0.30;;;17.10;74.90;;;;;;4987722;28;20042;-91
2024/03/22 05:47:00;;;;;;;0.30;0.30;;;17.10;74.90;;;;;;4989684;28;20085;-92
2024/03/22 05:49:25;;;;;;;0.40;0.40;;;17.10;75.00;;;;;;4988666;28;20023;-90
2024/03/22 05:51:51;;;;;;;0.30;0.30;;;17.10;75.00;;;;;;4957365;28;20026;-90
2024/03/22 05:54:16;;;;;;;0.30;0.30;;;17.10;74.90;;;;;;4990795;28;20667;-89
2024/03/22 05:56:42;;;;;;;0.30;0.30;;;17.10;75.00;;;;;;4973051;28;20023;-85
2024/03/22 05:59:07;;;;;;;0.40;0.40;;;17.10;75.00;;;;;;4988803;28;20030;-91
2024/03/22 06:01:33;;;;;;;0.30;0.30;;;17.10;74.90;;;;;;4973011;28;20483;-90
2024/03/22 06:03:59;;;;;;;0.40;0.40;;;17.10;74.90;;;;;;4988902;28;20088;-90
2024/03/22 06:06:25;;;;;;;0.50;0.50;;;17.10;74.90;;;;;;5006347;28;20611;-90
2024/03/22 06:08:56;;;;;;;0.30;0.30;;;17.10;75.10;;;;;;4971414;28;20027;-86
2024/03/22 06:11:22;;;;;;;0.30;0.30;;;17.10;75.80;;;;;;4989519;28;20044;-92
2024/03/22 06:13:48;;;;;;;0.50;0.50;;;17.20;74.80;;;;;;4974635;28;20488;-94
2024/03/22 06:16:13;;;;;;;0.50;0.50;;;17.10;75.00;;;;;;4992198;28;20110;-91
2024/03/22 06:18:39;;;;;;;0.40;0.40;;;17.10;74.90;;;;;;4989307;28;20035;-92
2024/03/22 06:21:05;;;;;;;0.40;0.40;;;17.20;75.40;;;;;;4990981;28;20029;-90
2024/03/22 06:23:31;;;;;;;0.30;0.30;;;17.20;76.10;;;;;;4988290;28;20043;-87
2024/03/22 06:25:57;;;;;;;0.30;0.30;;;17.20;75.30;;;;;;4641535;28;10000158;-88
2024/03/22 06:28:23;;;;;;;0.40;0.40;;;17.20;75.40;;;;;;4968927;28;20117;-87
2024/03/22 06:30:48;;;;;;;0.30;0.30;;;17.30;75.50;;;;;;4987595;28;20500;-91
2024/03/22 06:33:14;;;;;;;0.32;0.32;;;17.30;75.50;;;;;;4987694;28;20018;-91
2024/03/22 06:35:41;;;;;;;0.55;0.50;;;17.30;75.40;;;;;;4987783;28;20035;-91
2024/03/22 06:38:07;;;;;;;0.43;0.43;;;17.20;75.40;;;;;;4987731;28;20019;-90
2024/03/22 06:40:32;;;;;;;0.30;0.30;;;17.20;75.50;;;;;;4986336;28;20038;-89
2024/03/22 06:42:58;;;;;;;0.47;0.47;;;17.20;75.60;;;;;;4989209;28;20034;-90
2024/03/22 06:45:23;;;;;;;0.40;0.40;;;17.20;75.60;;;;;;4986073;28;20057;-90
2024/03/22 06:47:49;;;;;;;0.40;0.40;;;17.20;75.50;;;;;;4987505;28;20027;-90
2024/03/22 06:50:17;;;;;;;0.40;0.40;;;17.20;75.50;;;;;;4985738;28;20006;-91
2024/03/22 06:52:43;;;;;;;0.40;0.40;;;17.20;75.50;;;;;;4989142;28;20042;-91
2024/03/22 06:55:08;;;;;;;1.75;0.52;;;17.20;75.50;;;;;;4987300;28;20040;-90
2024/03/22 06:57:34;;;;;;;0.85;0.50;;;17.20;75.70;;;;;;4987067;28;20030;-91
2024/03/22 07:00:00;;;;;;;0.60;0.60;;;17.20;75.50;;;;;;4989532;28;20022;-91
2024/03/22 07:02:25;;;;;;;0.63;0.63;;;17.30;75.40;;;;;;4987425;28;20038;-89
2024/03/22 07:04:52;;;;;;;1.02;0.70;;;17.20;75.30;;;;;;4986058;28;20072;-89
2024/03/22 07:07:18;;;;;;;0.40;0.40;;;17.30;75.40;;;;;;4986996;28;20118;-89
2024/03/22 07:09:43;;;;;;;0.40;0.40;;;17.30;75.40;;;;;;4983011;28;20169;-89
2024/03/22 07:12:09;;;;;;;0.60;0.50;;;17.30;75.20;;;;;;4969615;28;20922;-88
2024/03/22 07:14:34;;;;;;;0.60;0.60;;;17.30;75.30;;;;;;4986625;28;20038;-90
2024/03/22 07:17:00;;;;;;;0.50;0.50;;;17.30;75.30;;;;;;4969424;28;20030;-89
2024/03/22 07:19:27;;;;;;;0.40;0.40;;;17.30;75.40;;;;;;4952901;28;20031;-88
2024/03/22 07:21:52;;;;;;;3.47;0.93;;;17.30;75.40;;;;;;4984932;28;20034;-88
2024/03/22 07:24:18;;;;;;;0.93;0.70;;;17.30;75.30;;;;;;4968053;28;20563;-89
2024/03/22 07:26:44;;;;;;;0.45;0.45;;;17.30;75.40;;;;;;4968849;28;20054;-88
2024/03/22 07:29:09;;;;;;;0.40;0.40;;;17.30;75.70;;;;;;4971581;28;20432;-89
2024/03/22 07:31:35;;;;;;;0.50;0.50;;;17.30;75.90;;;;;;4970990;28;20027;-89
2024/03/22 07:34:00;;;;;;;2.17;0.60;;;17.30;75.50;;;;;;4986081;28;20018;-89
2024/03/22 07:36:26;;;;;;;0.43;0.40;;;17.30;76.70;;;;;;4969851;28;20082;-90
2024/03/22 07:38:52;;;;;;;0.85;0.40;;;17.30;75.90;;;;;;4989146;28;20084;-89
2024/03/22 07:41:18;;;;;;;0.50;0.40;;;17.20;76.20;;;;;;4965732;28;20101;-89
2024/03/22 07:43:43;;;;;;;1.02;0.50;;;17.20;76.30;;;;;;4971028;28;20496;-89
2024/03/22 07:46:09;;;;;;;0.88;0.50;;;17.20;76.30;;;;;;4987116;28;20031;-89
2024/03/22 07:48:34;;;;;;;0.40;0.40;;;17.20;76.30;;;;;;4988245;28;20031;-88
2024/03/22 07:51:00;;;;;;;0.63;0.50;;;17.20;76.30;;;;;;4972392;28;20104;-89
2024/03/22 07:53:26;;;;;;;0.50;0.50;;;17.20;76.10;;;;;;4970834;28;20018;-89
2024/03/22 07:55:51;;;;;;;0.63;0.32;;;17.20;76.00;;;;;;4988886;28;20048;-89
2024/03/22 07:58:17;;;;;;;1.05;0.50;;;17.20;75.90;;;;;;4987556;28;20027;-89
2024/03/22 08:00:43;;;;;;;1.88;0.50;;;17.20;76.70;;;;;;4954104;28;20124;-89
2024/03/22 08:03:13;;;;;;;0.85;0.40;;;17.20;75.80;;;;;;4989455;28;20034;-89
2024/03/22 08:05:38;;;;;;;0.40;0.40;;;17.20;75.80;;;;;;4983215;28;20026;-88
2024/03/22 08:08:04;;;;;;;0.70;0.43;;;17.20;75.70;;;;;;4987674;28;20030;-89
2024/03/22 08:10:30;;;;;;;0.70;0.70;;;17.20;75.70;;;;;;4970085;28;20109;-88
2024/03/22 08:12:55;;;;;;;0.45;0.45;;;17.20;75.70;;;;;;4981005;28;20039;-89
2024/03/22 08:15:21;;;;;;;0.70;0.40;;;17.20;75.60;;;;;;4989258;28;20511;-89
2024/03/22 08:17:46;;;;;;;0.50;0.50;;;17.20;75.80;;;;;;4986977;28;20022;-89
2024/03/22 08:20:12;;;;;;;1.42;0.63;;;17.20;75.50;;;;;;4987009;28;20026;-88
2024/03/22 08:22:38;;;;;;;0.40;0.40;;;17.20;75.60;;;;;;4988274;28;20436;-89
2024/03/22 08:25:04;;;;;;;0.80;0.60;;;17.20;75.60;;;;;;4987062;28;20406;-88
2024/03/22 08:27:29;;;;;;;0.50;0.50;;;17.20;75.50;;;;;;4970334;28;20022;-89
2024/03/22 08:29:55;;;;;;;0.30;0.30;;;17.20;75.60;;;;;;4989228;28;20041;-89
2024/03/22 08:32:21;;;;;;;0.47;0.47;;;17.20;75.50;;;;;;4973282;28;20022;-89
2024/03/22 08:34:46;;;;;;;0.30;0.30;;;17.20;75.40;;;;;;4990771;28;20037;-88
2024/03/22 08:37:12;;;;;;;0.30;0.30;;;17.20;75.40;;;;;;5006492;28;20034;-89
2024/03/22 08:39:37;;;;;;;0.60;0.60;;;17.20;75.30;;;;;;4990333;28;20459;-88
2024/03/22 08:42:05;;;;;;;0.82;0.50;;;17.20;75.40;;;;;;4974801;28;20093;-89
2024/03/22 08:44:31;;;;;;;0.40;0.40;;;17.20;75.40;;;;;;5005572;28;20492;-88
2024/03/22 08:46:56;;;;;;;0.50;0.50;;;17.20;75.40;;;;;;4988339;28;20050;-88
2024/03/22 08:49:23;;;;;;;0.43;0.43;;;17.20;75.40;;;;;;4990059;28;20022;-88
2024/03/22 08:51:49;;;;;;;1.48;0.50;;;17.20;75.20;;;;;;4974375;28;20046;-88
2024/03/22 08:54:14;;;;;;;0.50;0.50;;;17.20;75.10;;;;;;4990753;28;20037;-89
2024/03/22 08:56:40;;;;;;;1.38;0.40;;;17.20;75.10;;;;;;4974148;28;20451;-89
2024/03/22 08:59:06;;;;;;;0.50;0.40;;;17.20;75.10;;;;;;4989472;28;20033;-88
2024/03/22 09:01:32;;;;;;;0.60;0.47;;;17.20;75.10;;;;;;5006260;28;20072;-88
2024/03/22 09:03:57;;;;;;;0.43;0.40;;;17.20;75.10;;;;;;4989738;28;20026;-88
2024/03/22 09:06:23;;;;;;;0.40;0.40;;;17.20;75.00;;;;;;4988357;28;20037;-87
2024/03/22 09:08:49;;;;;;;0.50;0.50;;;17.20;74.90;;;;;;4970782;28;20034;-88
2024/03/22 09:11:14;;;;;;;0.40;0.40;;;17.20;74.90;;;;;;4988494;28;20062;-88
2024/03/22 09:13:40;;;;;;;0.40;0.40;;;17.20;75.00;;;;;;4988720;28;20030;-88
2024/03/22 09:16:05;;;;;;;0.40;0.40;;;17.30;74.90;;;;;;4956942;28;20038;-88
2024/03/22 09:18:31;;;;;;;0.50;0.50;;;17.20;74.90;;;;;;4989740;28;20145;-89
2024/03/22 09:20:56;;;;;;;0.32;0.32;;;17.30;75.00;;;;;;4990486;28;20018;-88
2024/03/22 09:23:22;;;;;;;0.40;0.40;;;17.30;74.90;;;;;;4990579;28;20026;-88
2024/03/22 09:25:47;;;;;;;0.30;0.30;;;17.30;74.90;;;;;;4990977;28;20516;-88
2024/03/22 09:28:13;;;;;;;0.47;0.40;;;17.30;74.80;;;;;;4989948;28;20018;-87
2024/03/22 09:30:40;;;;;;;0.47;0.47;;;17.30;75.60;;;;;;4988979;28;20061;-88
2024/03/22 09:33:09;;;;;;;0.98;0.40;;;17.30;74.80;;;;;;4991926;28;20027;-89
2024/03/22 09:35:34;;;;;;;0.52;0.52;;;17.30;74.80;;;;;;4988461;28;20026;-88
2024/03/22 09:38:00;;;;;;;1.30;0.35;;;17.30;74.70;;;;;;4990168;28;20092;-89
2024/03/22 09:40:25;;;;;;;0.35;0.35;;;17.30;74.80;;;;;;4987442;28;20089;-89
2024/03/22 09:42:51;;;;;;;0.50;0.50;;;17.30;74.70;;;;;;4989320;28;20025;-89
2024/03/22 09:45:18;;;;;;;0.73;0.60;;;17.30;74.60;;;;;;4990008;28;20405;-89
2024/03/22 09:47:44;;;;;;;0.40;0.40;;;17.20;74.60;;;;;;4973536;28;20041;-88
2024/03/22 09:50:09;;;;;;;0.40;0.40;;;17.30;74.60;;;;;;4956168;28;20484;-88
2024/03/22 09:52:37;;;;;;;0.40;0.40;;;17.30;74.70;;;;;;4973024;28;20451;-89
2024/03/22 09:55:04;;;;;;;0.50;0.50;;;17.30;74.60;;;;;;4986616;28;20085;-88
2024/03/22 09:57:29;;;;;;;0.40;0.40;;;17.30;74.50;;;;;;4988538;28;20026;-88
2024/03/22 09:59:55;;;;;;;0.40;0.40;;;17.30;74.50;;;;;;4973749;28;20447;-88
2024/03/22 10:02:21;;;;;;;0.50;0.50;;;17.30;74.50;;;;;;4971577;28;20125;-89
2024/03/22 10:04:46;;;;;;;0.40;0.40;;;17.30;74.60;;;;;;4971910;28;20026;-88
2024/03/22 10:07:13;;;;;;;0.35;0.35;;;17.30;74.50;;;;;;4989600;28;20619;-89
2024/03/22 10:09:39;;;;;;;0.32;0.32;;;17.30;74.60;;;;;;4988937;28;20026;-89
2024/03/22 10:12:04;;;;;;;0.50;0.50;;;17.30;74.50;;;;;;4990348;28;20415;-89
2024/03/22 10:14:31;;;;;;;0.40;0.40;;;17.30;74.50;;;;;;4989245;28;20026;-88
2024/03/22 10:16:56;;;;;;;0.30;0.30;;;17.30;74.40;;;;;;4987596;28;20018;-88
2024/03/22 10:19:22;;;;;;;0.50;0.50;;;17.30;75.20;;;;;;4990402;28;20038;-88
2024/03/22 10:22:01;;;;;;;0.40;0.40;;;17.30;74.40;;;;;;4988820;28;20747;-88
2024/03/22 10:24:28;;;;;;;0.40;0.40;;;17.30;74.40;;;;;;5004261;28;20080;-88
2024/03/22 10:26:54;;;;;;;0.40;0.40;;;17.30;74.30;;;;;;4988658;28;20038;-88
2024/03/22 10:29:20;;;;;;;0.90;0.40;;;17.30;74.30;;;;;;4988905;28;20022;-88
2024/03/22 10:31:47;;;;;;;0.47;0.47;;;17.30;74.20;;;;;;4972149;28;20133;-88
2024/03/22 10:34:13;;;;;;;0.40;0.40;;;17.30;74.30;;;;;;4988399;28;20025;-88
2024/03/22 10:36:38;;;;;;;0.45;0.45;;;17.30;74.30;;;;;;4986548;28;20022;-86
2024/03/22 10:39:04;;;;;;;0.50;0.50;;;17.30;74.00;;;;;;4968812;28;20492;-88
2024/03/22 10:41:29;;;;;;;0.40;0.40;;;17.30;74.90;;;;;;4987208;28;20026;-88
2024/03/22 10:43:56;;;;;;;0.50;0.43;;;17.30;74.00;;;;;;4986543;28;20054;-88
2024/03/22 10:46:21;;;;;;;0.50;0.50;;;17.40;74.20;;;;;;4966075;28;20023;-86
2024/03/22 10:48:47;;;;;;;0.40;0.40;;;17.40;74.00;;;;;;4972255;28;20040;-90
2024/03/22 10:51:13;;;;;;;0.90;0.40;;;17.50;73.60;;;;;;4974193;28;20030;-91
2024/03/22 10:53:38;;;;;;;0.40;0.40;;;17.50;73.20;;;;;;4983979;28;20034;-91
2024/03/22 10:56:04;;;;;;;0.50;0.50;;;17.60;72.90;;;;;;4973772;28;20054;-91
2024/03/22 10:58:30;;;;;;;0.73;0.32;;;17.50;73.00;;;;;;4969538;28;20031;-90
2024/03/22 11:00:56;;;;;;;0.40;0.40;;;17.60;73.00;;;;;;4988677;28;20547;-90
2024/03/22 11:03:25;;;;;;;0.40;0.40;;;17.70;73.00;;;;;;4990011;28;20026;-90
2024/03/22 11:05:54;;;;;;;0.60;0.60;;;17.80;73.00;;;;;;5006002;28;20065;-91
2024/03/22 11:08:27;;;;;;;0.50;0.50;;;17.80;72.80;;;;;;4970015;28;20029;-91
2024/03/22 11:10:53;;;;;;;0.45;0.45;;;17.80;72.50;;;;;;4989540;28;20041;-91
2024/03/22 11:13:18;;;;;;;0.40;0.40;;;17.90;72.50;;;;;;4990181;28;20101;-91
2024/03/22 11:15:44;;;;;;;0.40;0.40;;;17.90;72.50;;;;;;4972504;28;20138;-91
2024/03/22 11:18:09;;;;;;;0.50;0.50;;;17.90;72.20;;;;;;4973984;28;20081;-90
2024/03/22 11:20:38;;;;;;;0.40;0.40;;;18.00;72.10;;;;;;4989081;28;20037;-91
2024/03/22 11:23:05;;;;;;;0.40;0.40;;;18.00;72.40;;;;;;4973428;28;20049;-91
2024/03/22 11:25:33;;;;;;;0.30;0.30;;;18.00;72.80;;;;;;4988428;28;20416;-91
2024/03/22 11:28:00;;;;;;;0.40;0.40;;;18.00;72.10;;;;;;4955837;28;20037;-91
2024/03/22 11:30:27;;;;;;;0.40;0.40;;;18.00;72.10;;;;;;4990047;28;20026;-91
2024/03/22 11:32:53;;;;;;;0.57;0.40;;;18.00;72.00;;;;;;4990258;28;20031;-91
2024/03/22 11:35:19;;;;;;;0.40;0.40;;;18.10;72.00;;;;;;4973994;28;20560;-91
2024/03/22 11:37:44;;;;;;;0.40;0.40;;;18.10;72.10;;;;;;4974441;28;20062;-91
2024/03/22 11:40:10;;;;;;;0.40;0.40;;;18.00;72.00;;;;;;4971968;28;20015;-91
2024/03/22 11:42:47;;;;;;;0.40;0.40;;;18.10;72.10;;;;;;4972185;28;20053;-91
2024/03/22 11:45:14;;;;;;;0.40;0.40;;;18.10;72.10;;;;;;5006610;28;20038;-91
2024/03/22 11:47:39;;;;;;;0.40;0.40;;;18.10;72.00;;;;;;4987317;28;20366;-91
2024/03/22 11:50:05;;;;;;;0.32;0.32;;;18.10;72.00;;;;;;4989431;28;20010;-91
2024/03/22 11:52:31;;;;;;;0.30;0.30;;;18.10;71.90;;;;;;4989518;28;20049;-91
2024/03/22 11:54:57;;;;;;;0.40;0.40;;;18.10;72.00;;;;;;4990423;28;20026;-91
2024/03/22 11:57:23;;;;;;;0.75;0.47;;;18.10;71.90;;;;;;4957766;28;20033;-91
2024/03/22 11:59:48;;;;;;;0.57;0.35;;;18.10;71.80;;;;;;4978827;28;20026;-91
2024/03/22 12:02:14;;;;;;;0.50;0.50;;;18.20;71.90;;;;;;4997428;28;20034;-90
2024/03/22 12:04:46;;;;;;;0.50;0.50;;;18.20;71.70;;;;;;4994414;28;20028;-91
2024/03/22 12:07:16;;;;;;;0.55;0.55;;;18.10;71.80;;;;;;4960513;28;20073;-91
2024/03/22 12:09:43;;;;;;;0.77;0.50;;;18.10;71.80;;;;;;4994134;28;20023;-91
2024/03/22 12:12:10;;;;;;;0.50;0.50;;;18.20;71.70;;;;;;4992797;28;20049;-90
2024/03/22 12:14:35;;;;;;;0.32;0.32;;;18.10;71.80;;;;;;4976273;28;20037;-90
2024/03/22 12:17:07;;;;;;;0.50;0.50;;;18.20;71.80;;;;;;4976508;28;20015;-90
2024/03/22 12:19:33;;;;;;;0.35;0.35;;;18.20;71.80;;;;;;4977427;28;20073;-90
2024/03/22 12:21:59;;;;;;;0.30;0.30;;;18.20;71.80;;;;;;4975845;28;20435;-89
2024/03/22 12:24:24;;;;;;;0.40;0.40;;;18.20;71.70;;;;;;4992457;28;20023;-89
2024/03/22 12:26:50;;;;;;;0.30;0.30;;;18.20;71.60;;;;;;4990922;28;20034;-90
2024/03/22 12:29:16;;;;;;;0.30;0.30;;;18.20;71.80;;;;;;4987975;28;20066;-90
2024/03/22 12:31:41;;;;;;;0.43;0.43;;;18.20;71.70;;;;;;4990632;28;20399;-89
2024/03/22 12:34:07;;;;;;;0.38;0.38;;;18.20;71.60;;;;;;4974664;28;20113;-91
2024/03/22 12:36:33;;;;;;;0.40;0.40;;;18.20;71.60;;;;;;4973759;28;20099;-90
2024/03/22 12:38:59;;;;;;;0.30;0.30;;;18.20;71.70;;;;;;4991942;28;20031;-90